sensor_id;sensor_type;location;lat;lon;timestamp;temperature;humidity
34776;DHT22;20989;52.566;13.346;2023-04-29T00:02:14;21.10;47.80
34776;DHT22;20989;52.566;13.346;2023-04-29T00:05:14;21.10;47.80
34776;DHT22;20989;52.566;13.346;2023-04-29T00:08:15;21.00;47.80
34776;DHT22;20989;52.566;13.346;2023-04-29T00:11:16;21.10;47.80
34776;DHT22;20989;52.566;13.346;2023-04-29T00:14:17;21.10;47.80
34776;DHT22;20989;52.566;13.346;2023-04-29T00:17:17;21.10;47.90
34776;DHT22;20989;52.566;13.346;2023-04-29T00:20:18;21.10;47.80
34776;DHT22;20989;52.566;13.346;2023-04-29T00:23:19;21.10;47.90
34776;DHT22;20989;52.566;13.346;2023-04-29T00:26:20;21.00;47.80
34776;DHT22;20989;52.566;13.346;2023-04-29T00:29:20;21.00;47.80
34776;DHT22;20989;52.566;13.346;2023-04-29T00:32:23;21.00;47.80
34776;DHT22;20989;52.566;13.346;2023-04-29T00:35:23;21.10;47.90
34776;DHT22;20989;52.566;13.346;2023-04-29T00:38:24;21.10;47.90
34776;DHT22;20989;52.566;13.346;2023-04-29T00:41:25;21.10;47.90
34776;DHT22;20989;52.566;13.346;2023-04-29T00:44:26;21.10;47.90
34776;DHT22;20989;52.566;13.346;2023-04-29T00:47:26;21.10;47.90
34776;DHT22;20989;52.566;13.346;2023-04-29T00:50:27;21.10;47.90
34776;DHT22;20989;52.566;13.346;2023-04-29T00:53:29;21.10;47.90
34776;DHT22;20989;52.566;13.346;2023-04-29T00:56:33;21.10;47.90
34776;DHT22;20989;52.566;13.346;2023-04-29T00:59:35;21.00;47.80
34776;DHT22;20989;52.566;13.346;2023-04-29T01:02:36;21.10;47.90
34776;DHT22;20989;52.566;13.346;2023-04-29T01:05:37;21.00;47.80
34776;DHT22;20989;52.566;13.346;2023-04-29T01:08:57;21.00;47.80
34776;DHT22;20989;52.566;13.346;2023-04-29T01:15:25;21.00;47.90
34776;DHT22;20989;52.566;13.346;2023-04-29T01:18:32;21.00;47.90
34776;DHT22;20989;52.566;13.346;2023-04-29T01:21:45;21.00;47.90
34776;DHT22;20989;52.566;13.346;2023-04-29T01:24:48;21.00;47.90
34776;DHT22;20989;52.566;13.346;2023-04-29T01:31:31;21.00;47.90
34776;DHT22;20989;52.566;13.346;2023-04-29T01:35:07;21.00;47.90
34776;DHT22;20989;52.566;13.346;2023-04-29T01:38:22;21.00;47.90
34776;DHT22;20989;52.566;13.346;2023-04-29T01:41:44;21.00;47.90
34776;DHT22;20989;52.566;13.346;2023-04-29T01:44:46;21.00;47.90
34776;DHT22;20989;52.566;13.346;2023-04-29T01:47:51;21.00;47.90
34776;DHT22;20989;52.566;13.346;2023-04-29T01:50:52;20.90;47.90
34776;DHT22;20989;52.566;13.346;2023-04-29T01:53:53;21.00;48.00
34776;DHT22;20989;52.566;13.346;2023-04-29T01:56:54;21.00;47.90
34776;DHT22;20989;52.566;13.346;2023-04-29T01:59:55;20.90;47.90
34776;DHT22;20989;52.566;13.346;2023-04-29T02:02:56;21.00;48.00
34776;DHT22;20989;52.566;13.346;2023-04-29T02:05:57;21.00;48.00
34776;DHT22;20989;52.566;13.346;2023-04-29T02:08:58;21.00;48.00
34776;DHT22;20989;52.566;13.346;2023-04-29T02:11:59;21.00;47.90
34776;DHT22;20989;52.566;13.346;2023-04-29T02:15:00;20.90;47.90
34776;DHT22;20989;52.566;13.346;2023-04-29T02:18:00;21.00;48.00
34776;DHT22;20989;52.566;13.346;2023-04-29T02:21:01;21.00;48.00
34776;DHT22;20989;52.566;13.346;2023-04-29T02:24:02;21.00;48.00
34776;DHT22;20989;52.566;13.346;2023-04-29T02:27:03;21.00;48.00
34776;DHT22;20989;52.566;13.346;2023-04-29T02:30:05;21.00;48.10
34776;DHT22;20989;52.566;13.346;2023-04-29T02:33:06;21.00;48.00
34776;DHT22;20989;52.566;13.346;2023-04-29T02:36:07;21.00;48.00
34776;DHT22;20989;52.566;13.346;2023-04-29T02:39:08;20.90;48.00
34776;DHT22;20989;52.566;13.346;2023-04-29T02:42:09;21.00;48.00
34776;DHT22;20989;52.566;13.346;2023-04-29T02:45:10;21.00;48.00
34776;DHT22;20989;52.566;13.346;2023-04-29T02:48:11;20.90;48.20
34776;DHT22;20989;52.566;13.346;2023-04-29T02:51:12;20.90;48.00
34776;DHT22;20989;52.566;13.346;2023-04-29T02:54:14;21.00;48.00
34776;DHT22;20989;52.566;13.346;2023-04-29T02:57:14;21.00;48.00
34776;DHT22;20989;52.566;13.346;2023-04-29T03:00:15;20.90;48.00
34776;DHT22;20989;52.566;13.346;2023-04-29T03:03:16;20.90;48.00
34776;DHT22;20989;52.566;13.346;2023-04-29T03:06:17;20.90;48.00
34776;DHT22;20989;52.566;13.346;2023-04-29T03:09:17;21.00;48.10
34776;DHT22;20989;52.566;13.346;2023-04-29T03:12:18;20.90;48.10
34776;DHT22;20989;52.566;13.346;2023-04-29T03:15:19;20.90;48.00
34776;DHT22;20989;52.566;13.346;2023-04-29T03:18:20;20.90;48.00
34776;DHT22;20989;52.566;13.346;2023-04-29T03:21:20;20.90;48.00
34776;DHT22;20989;52.566;13.346;2023-04-29T03:24:21;20.90;48.00
34776;DHT22;20989;52.566;13.346;2023-04-29T03:27:22;20.90;48.00
34776;DHT22;20989;52.566;13.346;2023-04-29T03:30:23;20.90;48.00
34776;DHT22;20989;52.566;13.346;2023-04-29T03:33:24;20.90;48.00
34776;DHT22;20989;52.566;13.346;2023-04-29T03:36:24;21.00;48.10
34776;DHT22;20989;52.566;13.346;2023-04-29T03:39:25;20.90;48.00
34776;DHT22;20989;52.566;13.346;2023-04-29T03:42:31;20.90;48.00
34776;DHT22;20989;52.566;13.346;2023-04-29T03:45:31;20.90;48.00
34776;DHT22;20989;52.566;13.346;2023-04-29T03:48:32;21.00;48.10
34776;DHT22;20989;52.566;13.346;2023-04-29T03:51:33;20.90;48.00
34776;DHT22;20989;52.566;13.346;2023-04-29T03:54:34;20.90;48.00
34776;DHT22;20989;52.566;13.346;2023-04-29T03:57:34;20.90;48.00
34776;DHT22;20989;52.566;13.346;2023-04-29T04:00:35;21.00;48.10
34776;DHT22;20989;52.566;13.346;2023-04-29T04:03:36;20.90;48.10
34776;DHT22;20989;52.566;13.346;2023-04-29T04:06:37;20.90;48.00
34776;DHT22;20989;52.566;13.346;2023-04-29T04:09:38;20.90;48.10
34776;DHT22;20989;52.566;13.346;2023-04-29T04:12:39;20.90;48.10
34776;DHT22;20989;52.566;13.346;2023-04-29T04:15:40;20.90;48.10
34776;DHT22;20989;52.566;13.346;2023-04-29T04:18:42;20.90;48.10
34776;DHT22;20989;52.566;13.346;2023-04-29T04:21:42;20.90;48.20
34776;DHT22;20989;52.566;13.346;2023-04-29T04:24:43;20.90;48.10
34776;DHT22;20989;52.566;13.346;2023-04-29T04:27:44;20.90;48.20
34776;DHT22;20989;52.566;13.346;2023-04-29T04:30:45;20.90;48.10
34776;DHT22;20989;52.566;13.346;2023-04-29T04:33:46;20.90;48.20
34776;DHT22;20989;52.566;13.346;2023-04-29T04:36:47;20.90;48.00
34776;DHT22;20989;52.566;13.346;2023-04-29T04:39:47;20.90;48.20
34776;DHT22;20989;52.566;13.346;2023-04-29T04:42:48;20.90;48.20
34776;DHT22;20989;52.566;13.346;2023-04-29T04:45:49;20.90;48.60
34776;DHT22;20989;52.566;13.346;2023-04-29T04:48:49;20.90;48.20
34776;DHT22;20989;52.566;13.346;2023-04-29T04:51:50;20.90;48.10
34776;DHT22;20989;52.566;13.346;2023-04-29T04:54:51;20.90;48.30
34776;DHT22;20989;52.566;13.346;2023-04-29T04:57:52;21.00;48.20
34776;DHT22;20989;52.566;13.346;2023-04-29T05:00:53;21.00;48.00
34776;DHT22;20989;52.566;13.346;2023-04-29T05:03:54;21.10;47.70
34776;DHT22;20989;52.566;13.346;2023-04-29T05:06:55;21.20;47.70
34776;DHT22;20989;52.566;13.346;2023-04-29T05:09:55;21.20;47.60
34776;DHT22;20989;52.566;13.346;2023-04-29T05:12:57;21.20;47.80
34776;DHT22;20989;52.566;13.346;2023-04-29T05:15:57;21.20;48.30
34776;DHT22;20989;52.566;13.346;2023-04-29T05:19:01;21.30;48.00
34776;DHT22;20989;52.566;13.346;2023-04-29T05:22:02;21.30;47.60
34776;DHT22;20989;52.566;13.346;2023-04-29T05:25:03;21.30;47.40
34776;DHT22;20989;52.566;13.346;2023-04-29T05:28:04;21.40;47.60
34776;DHT22;20989;52.566;13.346;2023-04-29T05:31:05;21.40;47.60
34776;DHT22;20989;52.566;13.346;2023-04-29T05:34:05;21.50;48.60
34776;DHT22;20989;52.566;13.346;2023-04-29T05:37:06;21.50;48.70
34776;DHT22;20989;52.566;13.346;2023-04-29T05:40:07;21.40;48.80
34776;DHT22;20989;52.566;13.346;2023-04-29T05:43:09;21.50;48.60
34776;DHT22;20989;52.566;13.346;2023-04-29T05:46:10;21.50;50.40
34776;DHT22;20989;52.566;13.346;2023-04-29T05:49:11;21.50;49.50
34776;DHT22;20989;52.566;13.346;2023-04-29T05:52:12;21.40;48.90
34776;DHT22;20989;52.566;13.346;2023-04-29T05:55:13;21.50;49.30
34776;DHT22;20989;52.566;13.346;2023-04-29T05:58:13;21.50;48.90
34776;DHT22;20989;52.566;13.346;2023-04-29T06:01:14;21.50;49.20
34776;DHT22;20989;52.566;13.346;2023-04-29T06:04:16;21.50;50.00
34776;DHT22;20989;52.566;13.346;2023-04-29T06:07:17;21.40;49.70
34776;DHT22;20989;52.566;13.346;2023-04-29T06:10:18;21.40;50.40
34776;DHT22;20989;52.566;13.346;2023-04-29T06:13:19;21.30;50.40
34776;DHT22;20989;52.566;13.346;2023-04-29T06:16:20;21.30;50.00
34776;DHT22;20989;52.566;13.346;2023-04-29T06:19:20;21.40;49.50
34776;DHT22;20989;52.566;13.346;2023-04-29T06:22:21;21.30;49.10
34776;DHT22;20989;52.566;13.346;2023-04-29T06:25:22;21.30;49.10
34776;DHT22;20989;52.566;13.346;2023-04-29T06:28:23;21.30;49.10
34776;DHT22;20989;52.566;13.346;2023-04-29T06:31:23;21.30;49.10
34776;DHT22;20989;52.566;13.346;2023-04-29T06:34:24;21.20;49.30
34776;DHT22;20989;52.566;13.346;2023-04-29T06:37:26;21.20;49.10
34776;DHT22;20989;52.566;13.346;2023-04-29T06:40:28;21.20;49.20
34776;DHT22;20989;52.566;13.346;2023-04-29T06:43:29;21.20;49.20
34776;DHT22;20989;52.566;13.346;2023-04-29T06:46:30;21.20;49.30
34776;DHT22;20989;52.566;13.346;2023-04-29T06:49:30;21.20;49.20
34776;DHT22;20989;52.566;13.346;2023-04-29T06:52:31;21.10;49.10
34776;DHT22;20989;52.566;13.346;2023-04-29T06:55:34;21.10;49.20
34776;DHT22;20989;52.566;13.346;2023-04-29T06:58:35;21.10;49.20
34776;DHT22;20989;52.566;13.346;2023-04-29T07:01:36;21.10;49.30
34776;DHT22;20989;52.566;13.346;2023-04-29T07:04:36;21.10;49.20
34776;DHT22;20989;52.566;13.346;2023-04-29T07:07:37;21.10;49.20
34776;DHT22;20989;52.566;13.346;2023-04-29T07:10:38;21.10;49.20
34776;DHT22;20989;52.566;13.346;2023-04-29T07:13:39;21.00;49.20
34776;DHT22;20989;52.566;13.346;2023-04-29T07:16:39;21.00;49.10
34776;DHT22;20989;52.566;13.346;2023-04-29T07:19:40;21.00;49.10
34776;DHT22;20989;52.566;13.346;2023-04-29T07:22:41;21.00;49.10
34776;DHT22;20989;52.566;13.346;2023-04-29T07:25:41;21.10;49.20
34776;DHT22;20989;52.566;13.346;2023-04-29T07:28:43;21.10;49.30
34776;DHT22;20989;52.566;13.346;2023-04-29T07:31:44;21.10;49.20
34776;DHT22;20989;52.566;13.346;2023-04-29T07:34:45;21.10;49.10
34776;DHT22;20989;52.566;13.346;2023-04-29T07:37:47;21.00;49.10
34776;DHT22;20989;52.566;13.346;2023-04-29T07:40:47;21.00;49.10
34776;DHT22;20989;52.566;13.346;2023-04-29T07:43:48;21.00;49.20
34776;DHT22;20989;52.566;13.346;2023-04-29T07:46:49;21.00;49.10
34776;DHT22;20989;52.566;13.346;2023-04-29T07:49:50;21.00;49.00
34776;DHT22;20989;52.566;13.346;2023-04-29T07:52:52;21.00;49.00
34776;DHT22;20989;52.566;13.346;2023-04-29T07:55:54;21.00;49.10
34776;DHT22;20989;52.566;13.346;2023-04-29T07:58:55;21.00;49.00
34776;DHT22;20989;52.566;13.346;2023-04-29T08:01:56;21.00;49.00
34776;DHT22;20989;52.566;13.346;2023-04-29T08:04:57;21.00;49.00
34776;DHT22;20989;52.566;13.346;2023-04-29T08:07:58;21.00;49.00
34776;DHT22;20989;52.566;13.346;2023-04-29T08:10:58;21.00;49.00
34776;DHT22;20989;52.566;13.346;2023-04-29T08:13:59;21.00;49.00
34776;DHT22;20989;52.566;13.346;2023-04-29T08:17:00;21.00;49.00
34776;DHT22;20989;52.566;13.346;2023-04-29T08:20:01;21.00;48.90
34776;DHT22;20989;52.566;13.346;2023-04-29T08:23:02;21.00;48.90
34776;DHT22;20989;52.566;13.346;2023-04-29T08:26:03;21.00;48.90
34776;DHT22;20989;52.566;13.346;2023-04-29T08:29:04;21.00;48.90
34776;DHT22;20989;52.566;13.346;2023-04-29T08:32:05;21.00;49.00
34776;DHT22;20989;52.566;13.346;2023-04-29T08:35:06;20.90;48.90
34776;DHT22;20989;52.566;13.346;2023-04-29T08:38:08;21.00;48.90
34776;DHT22;20989;52.566;13.346;2023-04-29T08:41:09;21.00;48.90
34776;DHT22;20989;52.566;13.346;2023-04-29T08:44:11;21.00;48.90
34776;DHT22;20989;52.566;13.346;2023-04-29T08:47:12;20.90;48.90
34776;DHT22;20989;52.566;13.346;2023-04-29T08:50:14;21.00;48.90
34776;DHT22;20989;52.566;13.346;2023-04-29T08:53:14;21.00;49.00
34776;DHT22;20989;52.566;13.346;2023-04-29T08:56:16;20.90;48.90
34776;DHT22;20989;52.566;13.346;2023-04-29T08:59:20;20.90;48.80
34776;DHT22;20989;52.566;13.346;2023-04-29T09:02:22;21.00;48.80
34776;DHT22;20989;52.566;13.346;2023-04-29T09:05:25;20.90;48.90
34776;DHT22;20989;52.566;13.346;2023-04-29T09:08:26;20.90;48.80
34776;DHT22;20989;52.566;13.346;2023-04-29T09:11:27;21.00;48.50
34776;DHT22;20989;52.566;13.346;2023-04-29T09:14:29;21.00;48.90
34776;DHT22;20989;52.566;13.346;2023-04-29T09:17:44;21.10;48.40
34776;DHT22;20989;52.566;13.346;2023-04-29T09:20:45;21.10;48.40
34776;DHT22;20989;52.566;13.346;2023-04-29T09:23:47;21.10;48.40
34776;DHT22;20989;52.566;13.346;2023-04-29T09:26:48;21.10;48.40
34776;DHT22;20989;52.566;13.346;2023-04-29T09:30:01;21.10;48.40
34776;DHT22;20989;52.566;13.346;2023-04-29T09:33:05;21.10;48.40
34776;DHT22;20989;52.566;13.346;2023-04-29T09:36:06;21.10;48.40
34776;DHT22;20989;52.566;13.346;2023-04-29T09:39:09;21.10;48.40
34776;DHT22;20989;52.566;13.346;2023-04-29T09:42:13;21.10;48.50
34776;DHT22;20989;52.566;13.346;2023-04-29T09:45:37;21.10;48.40
34776;DHT22;20989;52.566;13.346;2023-04-29T09:48:38;21.10;48.40
34776;DHT22;20989;52.566;13.346;2023-04-29T09:51:53;21.10;48.50
34776;DHT22;20989;52.566;13.346;2023-04-29T09:55:04;21.00;48.40
34776;DHT22;20989;52.566;13.346;2023-04-29T09:58:05;21.10;48.50
34776;DHT22;20989;52.566;13.346;2023-04-29T10:01:06;21.10;48.40
34776;DHT22;20989;52.566;13.346;2023-04-29T10:04:09;21.00;48.40
34776;DHT22;20989;52.566;13.346;2023-04-29T10:07:15;21.10;48.40
34776;DHT22;20989;52.566;13.346;2023-04-29T10:10:17;21.00;48.30
34776;DHT22;20989;52.566;13.346;2023-04-29T10:13:18;21.10;48.40
34776;DHT22;20989;52.566;13.346;2023-04-29T10:16:30;21.10;48.40
34776;DHT22;20989;52.566;13.346;2023-04-29T10:20:20;21.10;48.40
34776;DHT22;20989;52.566;13.346;2023-04-29T10:22:54;21.10;48.50
34776;DHT22;20989;52.566;13.346;2023-04-29T10:25:56;21.00;48.90
34776;DHT22;20989;52.566;13.346;2023-04-29T10:28:59;21.10;48.50
34776;DHT22;20989;52.566;13.346;2023-04-29T10:32:01;21.00;48.40
34776;DHT22;20989;52.566;13.346;2023-04-29T10:35:05;21.10;48.50
34776;DHT22;20989;52.566;13.346;2023-04-29T10:38:26;21.10;48.50
34776;DHT22;20989;52.566;13.346;2023-04-29T10:41:33;21.00;48.50
34776;DHT22;20989;52.566;13.346;2023-04-29T10:48:16;21.00;48.50
34776;DHT22;20989;52.566;13.346;2023-04-29T10:54:38;21.00;48.50
34776;DHT22;20989;52.566;13.346;2023-04-29T10:57:40;21.00;48.50
34776;DHT22;20989;52.566;13.346;2023-04-29T11:00:41;21.00;48.50
34776;DHT22;20989;52.566;13.346;2023-04-29T11:04:01;21.00;48.40
34776;DHT22;20989;52.566;13.346;2023-04-29T11:07:04;21.00;48.40
34776;DHT22;20989;52.566;13.346;2023-04-29T11:10:06;21.00;48.50
34776;DHT22;20989;52.566;13.346;2023-04-29T11:13:27;21.00;48.40
34776;DHT22;20989;52.566;13.346;2023-04-29T11:16:28;21.00;48.40
34776;DHT22;20989;52.566;13.346;2023-04-29T11:19:34;21.00;48.40
34776;DHT22;20989;52.566;13.346;2023-04-29T11:22:35;21.00;48.40
34776;DHT22;20989;52.566;13.346;2023-04-29T11:25:35;21.00;48.40
34776;DHT22;20989;52.566;13.346;2023-04-29T11:28:40;21.00;48.40
34776;DHT22;20989;52.566;13.346;2023-04-29T11:31:42;21.00;48.40
34776;DHT22;20989;52.566;13.346;2023-04-29T11:34:42;20.90;48.30
34776;DHT22;20989;52.566;13.346;2023-04-29T11:37:44;21.00;48.40
34776;DHT22;20989;52.566;13.346;2023-04-29T11:40:49;20.90;48.40
34776;DHT22;20989;52.566;13.346;2023-04-29T11:43:58;20.90;48.30
34776;DHT22;20989;52.566;13.346;2023-04-29T11:47:07;21.00;48.30
34776;DHT22;20989;52.566;13.346;2023-04-29T11:50:08;21.00;48.30
34776;DHT22;20989;52.566;13.346;2023-04-29T11:53:09;21.00;48.40
34776;DHT22;20989;52.566;13.346;2023-04-29T11:56:11;21.00;48.90
34776;DHT22;20989;52.566;13.346;2023-04-29T11:59:11;21.10;48.60
34776;DHT22;20989;52.566;13.346;2023-04-29T12:02:12;21.20;48.30
34776;DHT22;20989;52.566;13.346;2023-04-29T12:05:14;21.30;48.50
34776;DHT22;20989;52.566;13.346;2023-04-29T12:08:22;21.30;48.60
34776;DHT22;20989;52.566;13.346;2023-04-29T12:11:23;21.40;48.20
34776;DHT22;20989;52.566;13.346;2023-04-29T12:14:25;21.40;48.40
34776;DHT22;20989;52.566;13.346;2023-04-29T12:17:25;21.30;48.30
34776;DHT22;20989;52.566;13.346;2023-04-29T12:20:26;21.20;48.50
34776;DHT22;20989;52.566;13.346;2023-04-29T12:23:28;21.10;48.60
34776;DHT22;20989;52.566;13.346;2023-04-29T12:26:29;21.10;48.50
34776;DHT22;20989;52.566;13.346;2023-04-29T12:29:31;21.00;48.40
34776;DHT22;20989;52.566;13.346;2023-04-29T12:32:32;21.10;48.50
34776;DHT22;20989;52.566;13.346;2023-04-29T12:35:33;21.00;48.50
34776;DHT22;20989;52.566;13.346;2023-04-29T12:38:34;21.00;48.70
34776;DHT22;20989;52.566;13.346;2023-04-29T12:41:37;20.90;48.40
34776;DHT22;20989;52.566;13.346;2023-04-29T12:44:37;20.90;48.40
34776;DHT22;20989;52.566;13.346;2023-04-29T12:47:40;20.90;48.40
34776;DHT22;20989;52.566;13.346;2023-04-29T12:50:40;20.90;48.30
34776;DHT22;20989;52.566;13.346;2023-04-29T12:53:41;20.90;48.80
34776;DHT22;20989;52.566;13.346;2023-04-29T12:56:42;21.00;48.20
34776;DHT22;20989;52.566;13.346;2023-04-29T12:59:43;21.00;48.40
34776;DHT22;20989;52.566;13.346;2023-04-29T13:02:44;21.00;48.30
34776;DHT22;20989;52.566;13.346;2023-04-29T13:05:45;20.90;48.20
34776;DHT22;20989;52.566;13.346;2023-04-29T13:08:48;20.90;48.80
34776;DHT22;20989;52.566;13.346;2023-04-29T13:11:48;20.90;48.20
34776;DHT22;20989;52.566;13.346;2023-04-29T13:14:49;20.90;48.20
34776;DHT22;20989;52.566;13.346;2023-04-29T13:17:50;21.00;48.20
34776;DHT22;20989;52.566;13.346;2023-04-29T13:20:51;20.90;48.20
34776;DHT22;20989;52.566;13.346;2023-04-29T13:23:56;20.90;48.10
34776;DHT22;20989;52.566;13.346;2023-04-29T13:26:57;20.90;48.20
34776;DHT22;20989;52.566;13.346;2023-04-29T13:29:57;21.00;48.70
34776;DHT22;20989;52.566;13.346;2023-04-29T13:32:58;21.00;48.70
34776;DHT22;20989;52.566;13.346;2023-04-29T13:35:59;21.20;48.80
34776;DHT22;20989;52.566;13.346;2023-04-29T13:39:00;21.10;48.20
34776;DHT22;20989;52.566;13.346;2023-04-29T13:42:01;21.10;48.60
34776;DHT22;20989;52.566;13.346;2023-04-29T13:45:01;21.20;48.40
34776;DHT22;20989;52.566;13.346;2023-04-29T13:48:03;21.30;48.40
34776;DHT22;20989;52.566;13.346;2023-04-29T13:51:04;21.30;48.40
34776;DHT22;20989;52.566;13.346;2023-04-29T13:54:05;21.30;48.40
34776;DHT22;20989;52.566;13.346;2023-04-29T13:57:05;21.30;48.20
34776;DHT22;20989;52.566;13.346;2023-04-29T14:00:07;21.40;48.20
34776;DHT22;20989;52.566;13.346;2023-04-29T14:03:09;21.40;48.30
34776;DHT22;20989;52.566;13.346;2023-04-29T14:06:09;21.40;48.20
34776;DHT22;20989;52.566;13.346;2023-04-29T14:09:10;21.40;48.10
34776;DHT22;20989;52.566;13.346;2023-04-29T14:12:11;21.40;48.30
34776;DHT22;20989;52.566;13.346;2023-04-29T14:15:12;21.40;48.40
34776;DHT22;20989;52.566;13.346;2023-04-29T14:18:13;21.50;48.20
34776;DHT22;20989;52.566;13.346;2023-04-29T14:21:13;21.50;48.30
34776;DHT22;20989;52.566;13.346;2023-04-29T14:24:14;21.50;48.20
34776;DHT22;20989;52.566;13.346;2023-04-29T14:27:15;21.50;48.20
34776;DHT22;20989;52.566;13.346;2023-04-29T14:30:16;21.50;48.00
34776;DHT22;20989;52.566;13.346;2023-04-29T14:33:16;21.50;48.20
34776;DHT22;20989;52.566;13.346;2023-04-29T14:36:17;21.60;48.30
34776;DHT22;20989;52.566;13.346;2023-04-29T14:39:18;21.60;47.90
34776;DHT22;20989;52.566;13.346;2023-04-29T14:42:19;21.60;48.00
34776;DHT22;20989;52.566;13.346;2023-04-29T14:45:19;21.60;48.00
34776;DHT22;20989;52.566;13.346;2023-04-29T14:48:20;21.70;47.90
34776;DHT22;20989;52.566;13.346;2023-04-29T14:51:21;21.70;47.90
34776;DHT22;20989;52.566;13.346;2023-04-29T14:54:22;21.60;47.90
34776;DHT22;20989;52.566;13.346;2023-04-29T14:57:24;21.60;47.90
34776;DHT22;20989;52.566;13.346;2023-04-29T15:00:25;21.60;48.10
34776;DHT22;20989;52.566;13.346;2023-04-29T15:03:25;21.60;47.90
34776;DHT22;20989;52.566;13.346;2023-04-29T15:06:26;21.60;48.10
34776;DHT22;20989;52.566;13.346;2023-04-29T15:09:27;21.60;47.80
34776;DHT22;20989;52.566;13.346;2023-04-29T15:12:28;21.70;48.40
34776;DHT22;20989;52.566;13.346;2023-04-29T15:15:29;21.60;48.20
34776;DHT22;20989;52.566;13.346;2023-04-29T15:18:31;21.70;47.90
34776;DHT22;20989;52.566;13.346;2023-04-29T15:21:32;21.70;47.80
34776;DHT22;20989;52.566;13.346;2023-04-29T15:24:33;21.70;47.90
34776;DHT22;20989;52.566;13.346;2023-04-29T15:27:35;21.60;47.80
34776;DHT22;20989;52.566;13.346;2023-04-29T15:30:36;21.70;47.80
34776;DHT22;20989;52.566;13.346;2023-04-29T15:33:37;21.70;47.80
34776;DHT22;20989;52.566;13.346;2023-04-29T15:36:38;21.70;48.40
34776;DHT22;20989;52.566;13.346;2023-04-29T15:39:39;21.70;48.00
34776;DHT22;20989;52.566;13.346;2023-04-29T15:42:39;21.70;47.80
34776;DHT22;20989;52.566;13.346;2023-04-29T15:45:40;21.70;47.90
34776;DHT22;20989;52.566;13.346;2023-04-29T15:48:41;21.70;48.30
34776;DHT22;20989;52.566;13.346;2023-04-29T15:51:42;21.80;47.90
34776;DHT22;20989;52.566;13.346;2023-04-29T15:54:43;21.90;47.90
34776;DHT22;20989;52.566;13.346;2023-04-29T15:57:43;21.80;47.90
34776;DHT22;20989;52.566;13.346;2023-04-29T16:00:44;21.80;47.90
34776;DHT22;20989;52.566;13.346;2023-04-29T16:03:46;21.80;48.00
34776;DHT22;20989;52.566;13.346;2023-04-29T16:06:47;21.90;48.00
34776;DHT22;20989;52.566;13.346;2023-04-29T16:09:47;21.90;48.00
34776;DHT22;20989;52.566;13.346;2023-04-29T16:12:48;21.90;48.00
34776;DHT22;20989;52.566;13.346;2023-04-29T16:15:49;21.80;48.00
34776;DHT22;20989;52.566;13.346;2023-04-29T16:18:50;21.90;48.10
34776;DHT22;20989;52.566;13.346;2023-04-29T16:21:51;21.90;48.20
34776;DHT22;20989;52.566;13.346;2023-04-29T16:24:52;21.80;48.10
34776;DHT22;20989;52.566;13.346;2023-04-29T16:27:53;21.80;48.20
34776;DHT22;20989;52.566;13.346;2023-04-29T16:30:53;21.90;48.10
34776;DHT22;20989;52.566;13.346;2023-04-29T16:33:54;21.90;48.10
34776;DHT22;20989;52.566;13.346;2023-04-29T16:36:56;21.90;48.10
34776;DHT22;20989;52.566;13.346;2023-04-29T16:39:57;21.90;48.20
34776;DHT22;20989;52.566;13.346;2023-04-29T16:42:57;21.90;48.20
34776;DHT22;20989;52.566;13.346;2023-04-29T16:45:59;21.90;48.20
34776;DHT22;20989;52.566;13.346;2023-04-29T16:49:00;21.90;48.00
34776;DHT22;20989;52.566;13.346;2023-04-29T16:52:01;21.90;48.00
34776;DHT22;20989;52.566;13.346;2023-04-29T16:55:01;21.80;48.00
34776;DHT22;20989;52.566;13.346;2023-04-29T16:58:03;21.90;48.00
34776;DHT22;20989;52.566;13.346;2023-04-29T17:01:03;21.90;47.80
34776;DHT22;20989;52.566;13.346;2023-04-29T17:04:05;22.00;48.10
34776;DHT22;20989;52.566;13.346;2023-04-29T17:07:08;21.90;47.50
34776;DHT22;20989;52.566;13.346;2023-04-29T17:10:09;21.90;47.60
34776;DHT22;20989;52.566;13.346;2023-04-29T17:13:10;21.80;47.50
34776;DHT22;20989;52.566;13.346;2023-04-29T17:16:11;21.90;47.60
34776;DHT22;20989;52.566;13.346;2023-04-29T17:19:13;21.90;47.60
34776;DHT22;20989;52.566;13.346;2023-04-29T17:22:14;22.00;47.30
34776;DHT22;20989;52.566;13.346;2023-04-29T17:25:16;22.00;47.40
34776;DHT22;20989;52.566;13.346;2023-04-29T17:28:17;22.00;47.30
34776;DHT22;20989;52.566;13.346;2023-04-29T17:31:18;22.00;47.50
34776;DHT22;20989;52.566;13.346;2023-04-29T17:34:24;22.00;47.40
34776;DHT22;20989;52.566;13.346;2023-04-29T17:37:25;22.10;47.40
34776;DHT22;20989;52.566;13.346;2023-04-29T17:40:27;22.10;47.20
34776;DHT22;20989;52.566;13.346;2023-04-29T17:43:28;22.10;47.00
34776;DHT22;20989;52.566;13.346;2023-04-29T17:46:31;22.10;47.00
34776;DHT22;20989;52.566;13.346;2023-04-29T17:49:32;22.10;46.90
34776;DHT22;20989;52.566;13.346;2023-04-29T17:52:33;22.20;47.20
34776;DHT22;20989;52.566;13.346;2023-04-29T17:55:40;22.10;47.20
34776;DHT22;20989;52.566;13.346;2023-04-29T17:58:42;22.10;47.20
34776;DHT22;20989;52.566;13.346;2023-04-29T18:01:43;22.20;47.10
34776;DHT22;20989;52.566;13.346;2023-04-29T18:04:43;22.20;47.30
34776;DHT22;20989;52.566;13.346;2023-04-29T18:07:44;22.20;47.20
34776;DHT22;20989;52.566;13.346;2023-04-29T18:10:45;22.20;47.00
34776;DHT22;20989;52.566;13.346;2023-04-29T18:13:46;22.30;46.90
34776;DHT22;20989;52.566;13.346;2023-04-29T18:16:46;22.20;47.00
34776;DHT22;20989;52.566;13.346;2023-04-29T18:19:48;22.30;47.00
34776;DHT22;20989;52.566;13.346;2023-04-29T18:22:49;22.20;46.90
34776;DHT22;20989;52.566;13.346;2023-04-29T18:25:50;22.20;47.10
34776;DHT22;20989;52.566;13.346;2023-04-29T18:28:50;22.20;47.10
34776;DHT22;20989;52.566;13.346;2023-04-29T18:31:51;22.30;47.20
34776;DHT22;20989;52.566;13.346;2023-04-29T18:34:54;22.20;47.10
34776;DHT22;20989;52.566;13.346;2023-04-29T18:37:55;22.20;47.00
34776;DHT22;20989;52.566;13.346;2023-04-29T18:40:56;22.30;47.10
34776;DHT22;20989;52.566;13.346;2023-04-29T18:43:56;22.30;47.10
34776;DHT22;20989;52.566;13.346;2023-04-29T18:46:57;22.30;47.60
34776;DHT22;20989;52.566;13.346;2023-04-29T18:49:58;22.30;47.10
34776;DHT22;20989;52.566;13.346;2023-04-29T18:52:59;22.30;47.20
34776;DHT22;20989;52.566;13.346;2023-04-29T18:55:59;22.30;47.20
34776;DHT22;20989;52.566;13.346;2023-04-29T18:59:00;22.30;47.20
34776;DHT22;20989;52.566;13.346;2023-04-29T19:02:01;22.20;47.00
34776;DHT22;20989;52.566;13.346;2023-04-29T19:05:02;22.30;47.10